sensor_id;sensor_type;location;lat;lon;timestamp;pressure;altitude;pressure_sealevel;temperature;humidity
22181;BME280;11256;50.830;12.834;2022-07-22T00:01:05;97903.91;;;24.59;43.63
22181;BME280;11256;50.830;12.834;2022-07-22T00:06:06;97909.78;;;24.38;45.53
22181;BME280;11256;50.830;12.834;2022-07-22T00:11:06;97902.75;;;24.25;44.17
22181;BME280;11256;50.830;12.834;2022-07-22T00:16:06;97901.31;;;24.12;44.64
22181;BME280;11256;50.830;12.834;2022-07-22T00:21:07;97898.47;;;24.09;44.57
22181;BME280;11256;50.830;12.834;2022-07-22T00:26:07;97904.72;;;24.06;44.95
22181;BME280;11256;50.830;12.834;2022-07-22T00:31:07;97898.28;;;24.02;45.25
22181;BME280;11256;50.830;12.834;2022-07-22T00:36:08;97903.69;;;23.95;44.96
22181;BME280;11256;50.830;12.834;2022-07-22T00:41:08;97910.19;;;23.87;45.44
22181;BME280;11256;50.830;12.834;2022-07-22T00:46:12;97910.91;;;23.84;45.63
22181;BME280;11256;50.830;12.834;2022-07-22T00:51:12;97908.25;;;23.72;45.28
22181;BME280;11256;50.830;12.834;2022-07-22T00:56:14;97902.56;;;23.65;45.28
22181;BME280;11256;50.830;12.834;2022-07-22T01:01:16;97902.31;;;23.54;45.70
22181;BME280;11256;50.830;12.834;2022-07-22T01:06:16;97901.31;;;23.47;46.02
22181;BME280;11256;50.830;12.834;2022-07-22T01:11:18;97910.63;;;23.39;46.01
22181;BME280;11256;50.830;12.834;2022-07-22T01:16:19;97915.34;;;23.38;45.96
22181;BME280;11256;50.830;12.834;2022-07-22T01:21:19;97899.47;;;23.20;46.21
22181;BME280;11256;50.830;12.834;2022-07-22T01:26:20;97907.06;;;23.23;46.21
22181;BME280;11256;50.830;12.834;2022-07-22T01:31:20;97913.66;;;23.18;46.30
22181;BME280;11256;50.830;12.834;2022-07-22T01:36:21;97905.94;;;23.12;46.99
22181;BME280;11256;50.830;12.834;2022-07-22T01:41:21;97899.94;;;22.94;46.87
22181;BME280;11256;50.830;12.834;2022-07-22T01:46:22;97891.03;;;22.85;49.04
22181;BME280;11256;50.830;12.834;2022-07-22T01:51:24;97889.84;;;22.71;46.75
22181;BME280;11256;50.830;12.834;2022-07-22T01:56:24;97901.78;;;22.75;47.34
22181;BME280;11256;50.830;12.834;2022-07-22T02:01:25;97884.13;;;22.64;47.41
22181;BME280;11256;50.830;12.834;2022-07-22T02:06:25;97893.47;;;22.59;47.07
22181;BME280;11256;50.830;12.834;2022-07-22T02:11:27;97894.19;;;22.56;47.21
22181;BME280;11256;50.830;12.834;2022-07-22T02:16:31;97889.97;;;22.47;47.41
22181;BME280;11256;50.830;12.834;2022-07-22T02:21:31;97902.41;;;22.41;47.19
22181;BME280;11256;50.830;12.834;2022-07-22T02:26:33;97896.69;;;22.34;47.50
22181;BME280;11256;50.830;12.834;2022-07-22T02:31:34;97893.00;;;22.30;47.37
22181;BME280;11256;50.830;12.834;2022-07-22T02:36:35;97892.00;;;22.22;47.63
22181;BME280;11256;50.830;12.834;2022-07-22T02:41:35;97900.19;;;22.19;48.43
22181;BME280;11256;50.830;12.834;2022-07-22T02:46:35;97896.75;;;22.10;47.96
22181;BME280;11256;50.830;12.834;2022-07-22T02:51:45;97905.84;;;22.10;48.24
22181;BME280;11256;50.830;12.834;2022-07-22T02:56:46;97908.75;;;22.02;48.19
22181;BME280;11256;50.830;12.834;2022-07-22T03:01:46;97903.69;;;21.92;48.47
22181;BME280;11256;50.830;12.834;2022-07-22T03:06:47;97911.28;;;21.83;48.09
22181;BME280;11256;50.830;12.834;2022-07-22T03:11:53;97920.28;;;21.80;48.51
22181;BME280;11256;50.830;12.834;2022-07-22T03:16:54;97914.91;;;21.71;48.53
22181;BME280;11256;50.830;12.834;2022-07-22T03:21:55;97914.41;;;21.69;48.68
22181;BME280;11256;50.830;12.834;2022-07-22T03:26:56;97912.09;;;21.59;48.62
22181;BME280;11256;50.830;12.834;2022-07-22T03:31:56;97913.03;;;21.51;48.60
22181;BME280;11256;50.830;12.834;2022-07-22T03:37:11;97917.06;;;21.54;49.04
22181;BME280;11256;50.830;12.834;2022-07-22T03:42:13;97922.81;;;21.49;49.02
22181;BME280;11256;50.830;12.834;2022-07-22T03:47:22;97918.06;;;21.37;49.29
22181;BME280;11256;50.830;12.834;2022-07-22T03:52:23;97909.00;;;21.25;49.21
22181;BME280;11256;50.830;12.834;2022-07-22T03:57:23;97935.31;;;21.34;49.21
22181;BME280;11256;50.830;12.834;2022-07-22T04:02:33;97916.13;;;21.26;49.29
22181;BME280;11256;50.830;12.834;2022-07-22T04:07:34;97936.81;;;21.32;49.64
22181;BME280;11256;50.830;12.834;2022-07-22T04:12:36;97943.16;;;21.32;49.51
22181;BME280;11256;50.830;12.834;2022-07-22T04:17:50;97940.94;;;21.26;49.36
22181;BME280;11256;50.830;12.834;2022-07-22T04:22:51;97930.84;;;21.30;49.83
22181;BME280;11256;50.830;12.834;2022-07-22T04:27:51;97930.59;;;21.35;50.61
22181;BME280;11256;50.830;12.834;2022-07-22T04:32:52;97943.47;;;21.43;50.55
22181;BME280;11256;50.830;12.834;2022-07-22T04:37:53;97937.97;;;21.43;50.99
22181;BME280;11256;50.830;12.834;2022-07-22T04:42:53;97928.88;;;21.42;50.49
22181;BME280;11256;50.830;12.834;2022-07-22T04:47:54;97926.00;;;21.39;50.26
22181;BME280;11256;50.830;12.834;2022-07-22T04:52:54;97927.50;;;21.36;51.61
22181;BME280;11256;50.830;12.834;2022-07-22T04:57:55;97930.59;;;21.35;51.20
22181;BME280;11256;50.830;12.834;2022-07-22T05:02:56;97932.22;;;21.48;51.27
22181;BME280;11256;50.830;12.834;2022-07-22T05:07:56;97917.72;;;21.51;51.34
22181;BME280;11256;50.830;12.834;2022-07-22T05:12:59;97927.41;;;21.57;50.88
22181;BME280;11256;50.830;12.834;2022-07-22T05:18:00;97921.91;;;21.57;50.92
22181;BME280;11256;50.830;12.834;2022-07-22T05:23:04;97928.59;;;21.68;51.69
22181;BME280;11256;50.830;12.834;2022-07-22T05:28:07;97933.28;;;21.79;50.80
22181;BME280;11256;50.830;12.834;2022-07-22T05:33:11;97930.50;;;21.79;51.21
22181;BME280;11256;50.830;12.834;2022-07-22T05:38:32;97937.97;;;21.91;51.41
22181;BME280;11256;50.830;12.834;2022-07-22T05:43:33;97937.50;;;22.01;50.99
22181;BME280;11256;50.830;12.834;2022-07-22T05:48:35;97931.28;;;22.04;51.38
22181;BME280;11256;50.830;12.834;2022-07-22T05:53:36;97930.69;;;22.10;51.21
22181;BME280;11256;50.830;12.834;2022-07-22T05:58:37;97943.19;;;22.20;51.06
22181;BME280;11256;50.830;12.834;2022-07-22T06:03:38;97930.72;;;22.38;51.78
22181;BME280;11256;50.830;12.834;2022-07-22T06:08:38;97924.50;;;22.41;51.45
22181;BME280;11256;50.830;12.834;2022-07-22T06:13:40;97927.84;;;22.46;51.54
22181;BME280;11256;50.830;12.834;2022-07-22T06:23:41;97934.78;;;22.68;52.22
22181;BME280;11256;50.830;12.834;2022-07-22T06:28:42;97935.28;;;22.85;51.85
22181;BME280;11256;50.830;12.834;2022-07-22T06:33:43;97925.22;;;23.08;52.28
22181;BME280;11256;50.830;12.834;2022-07-22T06:38:43;97937.31;;;23.31;51.74
22181;BME280;11256;50.830;12.834;2022-07-22T06:43:53;97923.47;;;23.47;51.41
22181;BME280;11256;50.830;12.834;2022-07-22T06:49:10;97928.97;;;23.78;51.08
22181;BME280;11256;50.830;12.834;2022-07-22T06:54:10;97929.53;;;24.37;52.25
22181;BME280;11256;50.830;12.834;2022-07-22T06:59:11;97929.53;;;24.94;50.46
22181;BME280;11256;50.830;12.834;2022-07-22T07:04:11;97929.31;;;25.44;48.94
22181;BME280;11256;50.830;12.834;2022-07-22T07:09:12;97922.59;;;25.71;47.81
22181;BME280;11256;50.830;12.834;2022-07-22T07:14:12;97928.16;;;25.71;47.35
22181;BME280;11256;50.830;12.834;2022-07-22T07:19:13;97927.56;;;25.84;48.41
22181;BME280;11256;50.830;12.834;2022-07-22T07:24:13;97921.84;;;25.74;47.52
22181;BME280;11256;50.830;12.834;2022-07-22T07:29:13;97913.31;;;26.12;47.81
22181;BME280;11256;50.830;12.834;2022-07-22T07:34:15;97932.88;;;26.78;47.11
22181;BME280;11256;50.830;12.834;2022-07-22T07:39:15;97927.34;;;27.58;45.83
22181;BME280;11256;50.830;12.834;2022-07-22T07:44:16;97925.50;;;28.33;45.08
22181;BME280;11256;50.830;12.834;2022-07-22T07:49:17;97920.25;;;29.00;43.47
22181;BME280;11256;50.830;12.834;2022-07-22T07:54:18;97931.16;;;29.75;42.83
22181;BME280;11256;50.830;12.834;2022-07-22T07:59:20;97933.91;;;30.31;42.69
22181;BME280;11256;50.830;12.834;2022-07-22T08:04:21;97928.28;;;30.38;41.25
22181;BME280;11256;50.830;12.834;2022-07-22T08:09:21;97923.34;;;30.84;40.82
22181;BME280;11256;50.830;12.834;2022-07-22T08:14:23;97928.16;;;31.52;40.16
22181;BME280;11256;50.830;12.834;2022-07-22T08:19:48;97916.34;;;31.78;38.88
22181;BME280;11256;50.830;12.834;2022-07-22T08:24:48;97924.47;;;32.50;38.04
22181;BME280;11256;50.830;12.834;2022-07-22T08:29:50;97920.56;;;33.37;38.17
22181;BME280;11256;50.830;12.834;2022-07-22T08:34:51;97925.78;;;33.35;36.24
22181;BME280;11256;50.830;12.834;2022-07-22T08:39:51;97922.97;;;33.62;35.88
22181;BME280;11256;50.830;12.834;2022-07-22T08:44:54;97928.81;;;34.20;36.33
22181;BME280;11256;50.830;12.834;2022-07-22T08:49:55;97924.91;;;34.37;36.13
22181;BME280;11256;50.830;12.834;2022-07-22T08:55:26;97929.88;;;34.30;35.45
22181;BME280;11256;50.830;12.834;2022-07-22T09:00:26;97925.41;;;34.52;35.68
22181;BME280;11256;50.830;12.834;2022-07-22T09:05:33;97919.09;;;34.48;35.44
22181;BME280;11256;50.830;12.834;2022-07-22T09:10:35;97909.31;;;34.10;34.89
22181;BME280;11256;50.830;12.834;2022-07-22T09:15:54;97908.03;;;33.91;34.38
22181;BME280;11256;50.830;12.834;2022-07-22T09:21:21;97910.03;;;33.68;35.43
22181;BME280;11256;50.830;12.834;2022-07-22T09:26:39;97908.03;;;33.65;35.36
22181;BME280;11256;50.830;12.834;2022-07-22T09:32:09;97917.09;;;33.76;34.61
22181;BME280;11256;50.830;12.834;2022-07-22T09:37:28;97910.03;;;33.91;34.87
22181;BME280;11256;50.830;12.834;2022-07-22T09:42:43;97908.88;;;33.88;34.58
22181;BME280;11256;50.830;12.834;2022-07-22T09:47:46;97913.31;;;33.63;34.58
22181;BME280;11256;50.830;12.834;2022-07-22T09:53:05;97901.53;;;33.94;34.97
22181;BME280;11256;50.830;12.834;2022-07-22T09:58:11;97897.31;;;34.06;35.01
22181;BME280;11256;50.830;12.834;2022-07-22T10:03:24;97894.25;;;33.97;34.74
22181;BME280;11256;50.830;12.834;2022-07-22T10:08:26;97898.16;;;34.03;34.00
22181;BME280;11256;50.830;12.834;2022-07-22T10:13:27;97901.75;;;33.84;34.13
22181;BME280;11256;50.830;12.834;2022-07-22T10:18:28;97899.28;;;33.86;34.37
22181;BME280;11256;50.830;12.834;2022-07-22T10:23:31;97899.72;;;33.58;34.13
22181;BME280;11256;50.830;12.834;2022-07-22T10:33:33;97889.84;;;33.20;34.99
22181;BME280;11256;50.830;12.834;2022-07-22T10:38:37;97884.66;;;32.92;35.25
22181;BME280;11256;50.830;12.834;2022-07-22T10:58:52;97887.69;;;32.41;36.56
22181;BME280;11256;50.830;12.834;2022-07-22T11:03:53;97881.63;;;32.76;36.13
22181;BME280;11256;50.830;12.834;2022-07-22T11:08:59;97881.94;;;32.85;35.94
22181;BME280;11256;50.830;12.834;2022-07-22T11:14:00;97874.16;;;32.96;35.97
22181;BME280;11256;50.830;12.834;2022-07-22T11:19:02;97870.59;;;32.92;35.50
22181;BME280;11256;50.830;12.834;2022-07-22T11:24:05;97863.66;;;33.00;35.78
22181;BME280;11256;50.830;12.834;2022-07-22T11:29:06;97857.25;;;32.99;35.81
22181;BME280;11256;50.830;12.834;2022-07-22T11:34:11;97850.94;;;32.92;35.57
22181;BME280;11256;50.830;12.834;2022-07-22T11:39:13;97840.53;;;32.89;35.59
22181;BME280;11256;50.830;12.834;2022-07-22T11:44:22;97842.72;;;33.31;35.63
22181;BME280;11256;50.830;12.834;2022-07-22T11:49:22;97841.66;;;33.21;35.11
22181;BME280;11256;50.830;12.834;2022-07-22T11:54:23;97834.00;;;33.48;35.61
22181;BME280;11256;50.830;12.834;2022-07-22T11:59:23;97827.00;;;35.00;33.64
22181;BME280;11256;50.830;12.834;2022-07-22T12:04:25;97839.56;;;34.79;33.65
22181;BME280;11256;50.830;12.834;2022-07-22T12:09:35;97810.31;;;34.54;33.34
22181;BME280;11256;50.830;12.834;2022-07-22T12:14:36;97799.41;;;34.36;33.95
22181;BME280;11256;50.830;12.834;2022-07-22T12:19:37;97811.13;;;34.90;34.04
22181;BME280;11256;50.830;12.834;2022-07-22T12:34:41;97805.94;;;35.04;33.80
22181;BME280;11256;50.830;12.834;2022-07-22T12:45:06;97807.41;;;35.44;33.24
22181;BME280;11256;50.830;12.834;2022-07-22T12:50:19;97799.53;;;35.68;33.37
22181;BME280;11256;50.830;12.834;2022-07-22T12:55:20;97795.97;;;35.96;32.85
22181;BME280;11256;50.830;12.834;2022-07-22T13:00:26;97793.75;;;36.32;32.70
22181;BME280;11256;50.830;12.834;2022-07-22T13:05:27;97782.56;;;36.28;32.59
22181;BME280;11256;50.830;12.834;2022-07-22T13:10:28;97771.63;;;36.43;32.14
22181;BME280;11256;50.830;12.834;2022-07-22T13:15:28;97776.91;;;37.07;31.60
22181;BME280;11256;50.830;12.834;2022-07-22T13:20:32;97772.94;;;36.92;31.73
22181;BME280;11256;50.830;12.834;2022-07-22T13:25:32;97766.72;;;36.97;31.85
22181;BME280;11256;50.830;12.834;2022-07-22T13:30:41;97755.78;;;37.11;32.14
22181;BME280;11256;50.830;12.834;2022-07-22T13:35:43;97768.75;;;37.34;32.04
22181;BME280;11256;50.830;12.834;2022-07-22T13:40:44;97756.63;;;37.46;31.18
22181;BME280;11256;50.830;12.834;2022-07-22T13:45:52;97748.06;;;37.37;31.35
22181;BME280;11256;50.830;12.834;2022-07-22T13:50:53;97749.84;;;37.56;31.51
22181;BME280;11256;50.830;12.834;2022-07-22T13:55:54;97735.19;;;37.70;31.82
22181;BME280;11256;50.830;12.834;2022-07-22T14:00:54;97749.50;;;37.88;31.05
22181;BME280;11256;50.830;12.834;2022-07-22T14:05:54;97747.47;;;37.88;30.47
22181;BME280;11256;50.830;12.834;2022-07-22T14:10:55;97743.09;;;37.96;30.35
22181;BME280;11256;50.830;12.834;2022-07-22T14:15:55;97729.19;;;38.02;30.73
22181;BME280;11256;50.830;12.834;2022-07-22T14:20:56;97726.06;;;38.30;30.86
22181;BME280;11256;50.830;12.834;2022-07-22T14:25:56;97739.38;;;38.21;29.76
22181;BME280;11256;50.830;12.834;2022-07-22T14:30:58;97719.81;;;38.14;30.55
22181;BME280;11256;50.830;12.834;2022-07-22T14:36:01;97733.91;;;38.48;30.36
22181;BME280;11256;50.830;12.834;2022-07-22T14:41:02;97722.25;;;38.46;30.00
22181;BME280;11256;50.830;12.834;2022-07-22T14:46:03;97717.56;;;38.52;30.31
22181;BME280;11256;50.830;12.834;2022-07-22T14:51:07;97711.06;;;38.73;30.21
22181;BME280;11256;50.830;12.834;2022-07-22T14:56:08;97719.19;;;38.92;29.72
22181;BME280;11256;50.830;12.834;2022-07-22T15:01:08;97716.81;;;38.91;29.29
22181;BME280;11256;50.830;12.834;2022-07-22T15:06:09;97692.94;;;38.79;29.92
22181;BME280;11256;50.830;12.834;2022-07-22T15:11:10;97683.75;;;38.66;29.91
22181;BME280;11256;50.830;12.834;2022-07-22T15:16:10;97697.91;;;38.97;29.33
22181;BME280;11256;50.830;12.834;2022-07-22T15:21:12;97692.47;;;38.81;29.02
22181;BME280;11256;50.830;12.834;2022-07-22T15:26:12;97702.31;;;38.98;28.93
22181;BME280;11256;50.830;12.834;2022-07-22T15:31:13;97705.81;;;39.02;28.71
22181;BME280;11256;50.830;12.834;2022-07-22T15:36:13;97694.78;;;39.04;28.22
22181;BME280;11256;50.830;12.834;2022-07-22T15:41:14;97697.22;;;38.84;27.99
22181;BME280;11256;50.830;12.834;2022-07-22T15:46:16;97695.03;;;38.88;27.92
22181;BME280;11256;50.830;12.834;2022-07-22T15:51:17;97685.53;;;38.73;27.84
22181;BME280;11256;50.830;12.834;2022-07-22T15:56:17;97676.66;;;38.62;27.67
22181;BME280;11256;50.830;12.834;2022-07-22T16:01:21;97676.78;;;38.58;27.71
22181;BME280;11256;50.830;12.834;2022-07-22T16:06:21;97677.81;;;38.43;27.92
22181;BME280;11256;50.830;12.834;2022-07-22T16:11:25;97661.69;;;38.31;27.87
22181;BME280;11256;50.830;12.834;2022-07-22T16:16:28;97661.53;;;38.34;28.11
22181;BME280;11256;50.830;12.834;2022-07-22T16:21:31;97662.09;;;38.20;28.05
22181;BME280;11256;50.830;12.834;2022-07-22T16:26:31;97639.22;;;37.93;28.05
22181;BME280;11256;50.830;12.834;2022-07-22T16:31:35;97655.75;;;37.95;28.15
22181;BME280;11256;50.830;12.834;2022-07-22T16:36:50;97648.66;;;37.69;28.52
22181;BME280;11256;50.830;12.834;2022-07-22T16:41:59;97649.97;;;37.55;28.64
22181;BME280;11256;50.830;12.834;2022-07-22T16:47:05;97638.88;;;37.27;28.53
22181;BME280;11256;50.830;12.834;2022-07-22T16:52:08;97650.09;;;37.18;28.98
22181;BME280;11256;50.830;12.834;2022-07-22T16:57:17;97649.22;;;36.96;29.18
22181;BME280;11256;50.830;12.834;2022-07-22T17:02:20;97628.88;;;36.76;29.25
22181;BME280;11256;50.830;12.834;2022-07-22T17:07:24;97630.22;;;36.59;29.22
22181;BME280;11256;50.830;12.834;2022-07-22T17:12:27;97615.47;;;36.30;29.28
22181;BME280;11256;50.830;12.834;2022-07-22T17:17:35;97630.38;;;36.18;29.67
22181;BME280;11256;50.830;12.834;2022-07-22T17:22:35;97612.34;;;35.99;29.18
22181;BME280;11256;50.830;12.834;2022-07-22T17:27:40;97608.38;;;35.84;29.27
22181;BME280;11256;50.830;12.834;2022-07-22T17:32:49;97595.63;;;35.51;29.45
22181;BME280;11256;50.830;12.834;2022-07-22T17:37:53;97620.31;;;35.47;29.60
22181;BME280;11256;50.830;12.834;2022-07-22T17:43:24;97586.66;;;35.12;29.81
22181;BME280;11256;50.830;12.834;2022-07-22T17:48:25;97608.53;;;35.08;30.28
22181;BME280;11256;50.830;12.834;2022-07-22T17:53:37;97627.81;;;34.93;30.56
22181;BME280;11256;50.830;12.834;2022-07-22T17:58:49;97600.09;;;34.60;30.62
22181;BME280;11256;50.830;12.834;2022-07-22T18:03:49;97598.06;;;34.44;30.74
22181;BME280;11256;50.830;12.834;2022-07-22T18:09:02;97590.69;;;34.15;31.02
22181;BME280;11256;50.830;12.834;2022-07-22T18:14:23;97599.75;;;34.06;30.83
22181;BME280;11256;50.830;12.834;2022-07-22T18:19:27;97619.34;;;33.94;31.17
22181;BME280;11256;50.830;12.834;2022-07-22T18:24:27;97616.53;;;33.74;31.18
22181;BME280;11256;50.830;12.834;2022-07-22T18:29:28;97597.72;;;33.52;31.64
22181;BME280;11256;50.830;12.834;2022-07-22T18:34:33;97599.03;;;33.28;31.38
22181;BME280;11256;50.830;12.834;2022-07-22T18:39:56;97638.38;;;33.28;31.66
22181;BME280;11256;50.830;12.834;2022-07-22T18:44:57;97605.34;;;32.89;32.11
22181;BME280;11256;50.830;12.834;2022-07-22T18:49:58;97615.16;;;32.78;32.30
22181;BME280;11256;50.830;12.834;2022-07-22T18:54:58;97614.66;;;32.60;32.47
22181;BME280;11256;50.830;12.834;2022-07-22T19:00:04;97610.88;;;32.47;32.50
22181;BME280;11256;50.830;12.834;2022-07-22T19:05:12;97623.97;;;32.30;32.88
22181;BME280;11256;50.830;12.834;2022-07-22T19:10:15;97622.59;;;32.12;33.10
22181;BME280;11256;50.830;12.834;2022-07-22T19:15:16;97617.34;;;31.87;33.13
22181;BME280;11256;50.830;12.834;2022-07-22T19:20:16;97623.16;;;31.73;33.35
22181;BME280;11256;50.830;12.834;2022-07-22T19:25:17;97622.94;;;31.57;33.67
22181;BME280;11256;50.830;12.834;2022-07-22T19:30:25;97654.19;;;31.56;33.91
22181;BME280;11256;50.830;12.834;2022-07-22T19:35:25;97664.41;;;31.36;34.04
22181;BME280;11256;50.830;12.834;2022-07-22T19:40:27;97665.38;;;31.22;34.41
22181;BME280;11256;50.830;12.834;2022-07-22T19:45:27;97645.59;;;30.96;34.33
22181;BME280;11256;50.830;12.834;2022-07-22T19:50:28;97683.19;;;30.98;34.65
22181;BME280;11256;50.830;12.834;2022-07-22T19:55:29;97668.97;;;30.79;34.77
22181;BME280;11256;50.830;12.834;2022-07-22T20:00:29;97681.09;;;30.62;35.06
22181;BME280;11256;50.830;12.834;2022-07-22T20:05:29;97687.22;;;30.43;35.47
22181;BME280;11256;50.830;12.834;2022-07-22T20:10:30;97659.00;;;30.20;35.17
22181;BME280;11256;50.830;12.834;2022-07-22T20:15:30;97683.00;;;30.14;35.41
22181;BME280;11256;50.830;12.834;2022-07-22T20:20:31;97685.88;;;29.93;35.69
22181;BME280;11256;50.830;12.834;2022-07-22T20:25:31;97713.06;;;29.85;35.98
22181;BME280;11256;50.830;12.834;2022-07-22T20:30:31;97730.66;;;29.79;35.97
22181;BME280;11256;50.830;12.834;2022-07-22T20:35:32;97721.56;;;29.57;36.13
22181;BME280;11256;50.830;12.834;2022-07-22T20:40:32;97748.69;;;29.64;36.59
22181;BME280;11256;50.830;12.834;2022-07-22T20:45:33;97735.13;;;29.41;36.57
22181;BME280;11256;50.830;12.834;2022-07-22T20:50:33;97764.69;;;29.39;36.66
22181;BME280;11256;50.830;12.834;2022-07-22T20:55:34;97755.94;;;29.12;37.26
22181;BME280;11256;50.830;12.834;2022-07-22T21:00:35;97763.09;;;29.03;37.44
22181;BME280;11256;50.830;12.834;2022-07-22T21:05:35;97751.53;;;28.87;37.44
22181;BME280;11256;50.830;12.834;2022-07-22T21:10:36;97747.13;;;28.68;37.96
22181;BME280;11256;50.830;12.834;2022-07-22T21:15:36;97759.06;;;28.65;37.90
22181;BME280;11256;50.830;12.834;2022-07-22T21:20:36;97750.69;;;28.55;37.91
22181;BME280;11256;50.830;12.834;2022-07-22T21:25:38;97759.84;;;28.48;38.36
22181;BME280;11256;50.830;12.834;2022-07-22T21:30:39;97767.38;;;28.41;38.30
22181;BME280;11256;50.830;12.834;2022-07-22T21:35:40;97762.13;;;28.22;38.61
22181;BME280;11256;50.830;12.834;2022-07-22T21:40:40;97750.91;;;28.01;38.77
22181;BME280;11256;50.830;12.834;2022-07-22T21:45:40;97748.50;;;27.96;38.74
22181;BME280;11256;50.830;12.834;2022-07-22T21:50:41;97746.00;;;27.80;38.96
22181;BME280;11256;50.830;12.834;2022-07-22T21:55:44;97756.31;;;27.73;39.17
22181;BME280;11256;50.830;12.834;2022-07-22T22:01:03;97766.63;;;27.65;39.48
22181;BME280;11256;50.830;12.834;2022-07-22T22:06:04;97765.78;;;27.54;39.61
22181;BME280;11256;50.830;12.834;2022-07-22T22:11:07;97754.91;;;27.39;39.69
22181;BME280;11256;50.830;12.834;2022-07-22T22:16:08;97739.72;;;27.26;39.86
22181;BME280;11256;50.830;12.834;2022-07-22T22:21:08;97737.63;;;27.16;39.82
22181;BME280;11256;50.830;12.834;2022-07-22T22:26:09;97716.91;;;27.06;40.07
22181;BME280;11256;50.830;12.834;2022-07-22T22:31:09;97709.66;;;26.98;40.20
22181;BME280;11256;50.830;12.834;2022-07-22T22:36:10;97706.41;;;26.86;40.48
22181;BME280;11256;50.830;12.834;2022-07-22T22:41:10;97699.97;;;26.75;40.39
22181;BME280;11256;50.830;12.834;2022-07-22T22:46:10;97707.00;;;26.62;40.81
22181;BME280;11256;50.830;12.834;2022-07-22T22:51:15;97692.53;;;26.49;40.60
22181;BME280;11256;50.830;12.834;2022-07-22T22:56:18;97676.53;;;26.36;40.86
22181;BME280;11256;50.830;12.834;2022-07-22T23:01:18;97691.97;;;26.30;41.09
22181;BME280;11256;50.830;12.834;2022-07-22T23:06:19;97679.53;;;26.17;41.22
22181;BME280;11256;50.830;12.834;2022-07-22T23:11:19;97677.44;;;26.07;41.36
22181;BME280;11256;50.830;12.834;2022-07-22T23:16:19;97683.31;;;25.98;41.53
22181;BME280;11256;50.830;12.834;2022-07-22T23:21:20;97675.59;;;25.85;41.47
22181;BME280;11256;50.830;12.834;2022-07-22T23:26:20;97674.25;;;25.72;41.77
22181;BME280;11256;50.830;12.834;2022-07-22T23:31:23;97664.50;;;25.55;42.00
22181;BME280;11256;50.830;12.834;2022-07-22T23:36:39;97650.41;;;25.38;42.26
22181;BME280;11256;50.830;12.834;2022-07-22T23:41:40;97669.84;;;25.38;42.73
22181;BME280;11256;50.830;12.834;2022-07-22T23:46:40;97700.91;;;25.47;42.42
22181;BME280;11256;50.830;12.834;2022-07-22T23:51:41;97696.66;;;25.27;42.69
22181;BME280;11256;50.830;12.834;2022-07-22T23:56:42;97697.38;;;25.24;43.05
